Time;durP1;ratioP1;P1;durP2;ratioP2;P2;SDS_P1;SDS_P2;PMS_P1;PMS_P2;Temp;Humidity;BMP_temperature;BMP_pressure;BME280_temperature;BME280_humidity;BME280_pressure;Samples;Min_cycle;Max_cycle;Signal;HPM_P1;HPM_P2
2022/04/21 00:00:34;;;;;;;0.90;0.90;;;10.30;98.10;;;;;;5013851;28;20232;-67
2022/04/21 00:03:01;;;;;;;0.90;0.90;;;10.20;97.80;;;;;;5011561;28;20595;-67
2022/04/21 00:05:29;;;;;;;1.00;1.00;;;10.30;98.00;;;;;;5011635;28;20363;-67
2022/04/21 00:07:56;;;;;;;1.10;1.10;;;10.30;97.80;;;;;;5010759;28;20244;-68
2022/04/21 00:10:24;;;;;;;1.20;1.10;;;10.20;97.90;;;;;;5011399;28;20233;-68
2022/04/21 00:12:54;;;;;;;0.70;0.70;;;10.20;97.90;;;;;;5011842;28;20228;-67
2022/04/21 00:15:22;;;;;;;0.80;0.80;;;10.20;97.70;;;;;;5011227;28;20212;-67
2022/04/21 00:17:49;;;;;;;1.00;1.00;;;10.10;97.80;;;;;;5011356;28;20231;-67
2022/04/21 00:20:16;;;;;;;0.82;0.82;;;10.10;97.90;;;;;;5018144;28;20230;-67
2022/04/21 00:25:28;;;;;;;0.70;0.70;;;10.10;98.20;;;;;;5034952;28;20263;-68
2022/04/21 00:27:55;;;;;;;1.15;0.70;;;10.10;99.10;;;;;;5017870;28;20228;-67
2022/04/21 00:30:25;;;;;;;0.90;0.90;;;10.10;98.90;;;;;;5015301;28;20235;-70
2022/04/21 00:32:52;;;;;;;0.75;0.75;;;10.00;99.00;;;;;;5015999;28;20233;-68
2022/04/21 00:35:19;;;;;;;0.77;0.77;;;9.90;99.90;;;;;;5037007;28;20227;-67
2022/04/21 00:37:47;;;;;;;0.93;0.90;;;9.90;99.90;;;;;;5038599;28;20596;-66
2022/04/21 00:40:15;;;;;;;0.98;0.98;;;9.80;99.90;;;;;;5039290;28;20217;-67
2022/04/21 00:42:42;;;;;;;0.80;0.80;;;9.80;99.80;;;;;;5036956;28;20201;-66
2022/04/21 00:45:10;;;;;;;0.70;0.70;;;9.70;99.70;;;;;;5022037;28;20235;-68
2022/04/21 00:47:43;;;;;;;0.90;0.90;;;9.70;99.90;;;;;;5014501;28;20324;-68
2022/04/21 00:50:13;;;;;;;0.98;0.98;;;9.70;99.90;;;;;;5014955;28;20259;-67
2022/04/21 00:52:41;;;;;;;0.80;0.80;;;9.70;99.90;;;;;;5014969;28;20236;-67
2022/04/21 00:55:09;;;;;;;0.90;0.90;;;9.70;99.90;;;;;;5014769;28;20216;-67
2022/04/21 00:57:38;;;;;;;0.90;0.90;;;9.70;99.90;;;;;;5014139;28;20308;-68
2022/04/21 01:00:06;;;;;;;0.90;0.90;;;9.60;99.90;;;;;;5014557;28;20215;-68
2022/04/21 01:02:50;;;;;;;0.90;0.90;;;9.70;99.90;;;;;;5014751;28;20208;-69
2022/04/21 01:05:25;;;;;;;0.90;0.90;;;9.60;99.90;;;;;;5014336;28;20714;-69
2022/04/21 01:07:52;;;;;;;0.90;0.90;;;9.50;99.90;;;;;;5013912;28;20228;-68
2022/04/21 01:10:19;;;;;;;0.85;0.85;;;9.50;99.90;;;;;;5019413;28;20300;-68
2022/04/21 01:12:47;;;;;;;0.80;0.80;;;9.50;99.90;;;;;;5023440;28;20233;-67
2022/04/21 01:35:27;;;;;;;1.00;1.00;;;9.20;99.90;;;;;;5014543;28;20236;-68
2022/04/21 01:43:23;;;;;;;0.98;0.98;;;9.10;99.90;;;;;;5014181;28;20524;-68
2022/04/21 01:45:50;;;;;;;0.90;0.90;;;9.10;99.90;;;;;;5014119;28;20205;-67
2022/04/21 01:48:17;;;;;;;1.10;1.10;;;9.10;99.90;;;;;;5013165;28;20252;-67
2022/04/21 01:50:45;;;;;;;1.05;1.05;;;9.00;99.90;;;;;;5013789;28;20308;-68
2022/04/21 01:53:12;;;;;;;0.80;0.80;;;9.00;99.90;;;;;;5013462;28;20211;-68
2022/04/21 01:55:39;;;;;;;0.95;0.95;;;9.00;99.90;;;;;;5013762;28;20240;-68
2022/04/21 01:58:06;;;;;;;0.90;0.90;;;9.00;99.90;;;;;;5013237;28;20261;-69
2022/04/21 02:00:33;;;;;;;0.98;0.98;;;9.00;99.90;;;;;;5018513;28;20259;-68
2022/04/21 02:03:00;;;;;;;1.00;1.00;;;8.90;99.90;;;;;;5022005;28;20255;-71
2022/04/21 02:05:27;;;;;;;1.10;1.10;;;8.90;99.90;;;;;;5017091;28;20304;-68
2022/04/21 02:07:55;;;;;;;1.00;1.00;;;9.00;99.90;;;;;;5012544;28;20260;-68
2022/04/21 02:10:22;;;;;;;0.85;0.85;;;9.10;99.90;;;;;;5013419;28;20208;-68
2022/04/21 02:12:50;;;;;;;0.95;0.95;;;9.30;99.90;;;;;;5013577;28;20239;-68
2022/04/21 02:15:18;;;;;;;0.80;0.80;;;9.00;99.90;;;;;;5013168;28;20684;-68
2022/04/21 02:17:45;;;;;;;1.00;1.00;;;8.90;99.90;;;;;;5012592;28;20229;-69
2022/04/21 02:20:15;;;;;;;0.90;0.90;;;8.80;99.90;;;;;;5015525;28;20297;-67
2022/04/21 02:22:42;;;;;;;1.00;1.00;;;8.80;99.90;;;;;;5021153;28;20205;-69
2022/04/21 02:25:12;;;;;;;1.20;1.10;;;8.90;99.90;;;;;;5029469;28;20213;-69
2022/04/21 02:27:41;;;;;;;1.05;1.05;;;9.00;99.90;;;;;;5018439;28;20256;-70
2022/04/21 02:30:09;;;;;;;1.10;1.10;;;8.90;99.90;;;;;;5022549;28;20205;-69
2022/04/21 02:32:37;;;;;;;1.00;1.00;;;8.90;99.90;;;;;;5016931;28;20267;-66
2022/04/21 02:35:04;;;;;;;1.20;1.20;;;8.80;99.90;;;;;;5013528;28;20255;-67
2022/04/21 02:37:36;;;;;;;1.00;1.00;;;8.70;99.90;;;;;;5012658;28;20661;-69
2022/04/21 02:40:03;;;;;;;1.00;1.00;;;8.50;99.90;;;;;;5034580;28;20189;-67
2022/04/21 02:42:31;;;;;;;0.90;0.90;;;8.50;99.90;;;;;;5035176;28;20209;-68
2022/04/21 02:44:58;;;;;;;1.25;0.90;;;8.50;99.90;;;;;;5035550;28;20242;-67
2022/04/21 02:47:25;;;;;;;1.00;1.00;;;8.40;99.90;;;;;;5027614;28;20237;-68
2022/04/21 02:49:53;;;;;;;0.90;0.90;;;8.40;99.90;;;;;;5036963;22;20278;-64
2022/04/21 02:52:21;;;;;;;1.15;1.10;;;8.30;99.90;;;;;;5033575;28;20585;-65
2022/04/21 02:57:34;;;;;;;0.90;0.90;;;8.20;99.90;;;;;;5033576;28;20267;-64
2022/04/21 03:00:04;;;;;;;0.82;0.82;;;8.30;99.90;;;;;;5033798;28;20227;-64
2022/04/21 03:02:31;;;;;;;0.90;0.90;;;8.20;99.90;;;;;;5034784;28;20283;-65
2022/04/21 03:04:58;;;;;;;0.90;0.90;;;8.10;99.90;;;;;;5035302;28;20290;-65
2022/04/21 03:07:25;;;;;;;0.95;0.95;;;8.10;99.90;;;;;;5036972;28;20205;-64
2022/04/21 03:09:53;;;;;;;1.17;1.00;;;8.10;99.90;;;;;;5038197;28;20224;-64
2022/04/21 03:12:23;;;;;;;0.85;0.85;;;8.20;99.90;;;;;;5038323;28;20228;-65
2022/04/21 03:14:51;;;;;;;1.02;1.02;;;8.20;99.90;;;;;;5039007;28;20231;-65
2022/04/21 03:17:18;;;;;;;0.90;0.90;;;8.10;99.90;;;;;;5038562;28;20236;-64
2022/04/21 03:19:45;;;;;;;1.23;1.13;;;8.20;99.90;;;;;;5036278;28;20365;-65
2022/04/21 03:25:00;;;;;;;1.20;1.00;;;8.30;99.90;;;;;;5036294;28;20282;-64
2022/04/21 03:27:29;;;;;;;0.93;0.90;;;8.30;99.90;;;;;;5037309;28;20240;-64
2022/04/21 03:29:57;;;;;;;0.95;0.90;;;8.30;99.90;;;;;;5037698;28;20232;-65
2022/04/21 03:32:26;;;;;;;1.00;1.00;;;8.30;99.90;;;;;;5038484;28;20263;-65
2022/04/21 03:34:54;;;;;;;1.00;1.00;;;8.20;99.90;;;;;;5038089;28;20208;-65
2022/04/21 03:37:23;;;;;;;0.82;0.82;;;8.10;99.90;;;;;;5038027;28;20215;-65
2022/04/21 03:39:49;;;;;;;0.82;0.82;;;8.10;99.90;;;;;;5038347;28;20251;-65
2022/04/21 03:42:20;;;;;;;1.02;1.00;;;8.00;99.90;;;;;;5039725;28;20694;-63
2022/04/21 03:44:48;;;;;;;1.10;1.10;;;7.90;99.90;;;;;;5039695;28;20212;-64
2022/04/21 03:47:16;;;;;;;0.98;0.98;;;7.80;99.90;;;;;;5039312;28;20204;-64
2022/04/21 03:49:43;;;;;;;1.00;1.00;;;7.90;99.90;;;;;;5039722;28;20252;-65
2022/04/21 03:52:11;;;;;;;0.90;0.90;;;7.90;99.90;;;;;;5039113;28;20243;-65
2022/04/21 03:54:38;;;;;;;0.90;0.90;;;7.90;99.90;;;;;;5039038;28;20584;-65
2022/04/21 03:57:05;;;;;;;1.00;1.00;;;8.00;99.90;;;;;;5040115;28;20284;-65
2022/04/21 03:59:32;;;;;;;0.90;0.90;;;7.90;99.90;;;;;;5037770;28;20279;-65
2022/04/21 04:02:02;;;;;;;1.00;1.00;;;7.90;99.90;;;;;;5036459;28;20243;-64
2022/04/21 04:04:31;;;;;;;0.90;0.90;;;8.00;99.90;;;;;;5034568;28;20231;-63
2022/04/21 04:12:31;;;;;;;1.00;1.00;;;7.80;99.90;;;;;;5037914;28;20223;-64
2022/04/21 04:14:59;;;;;;;1.00;1.00;;;7.70;99.90;;;;;;5041242;28;20224;-64
2022/04/21 04:17:26;;;;;;;0.90;0.90;;;7.60;99.90;;;;;;5041261;28;20210;-64
2022/04/21 04:19:54;;;;;;;1.10;1.10;;;7.70;99.90;;;;;;5042879;28;20655;-64
2022/04/21 04:22:21;;;;;;;0.90;0.90;;;7.60;99.90;;;;;;5038158;28;20235;-64
2022/04/21 04:24:50;;;;;;;1.00;1.00;;;7.60;99.90;;;;;;5034559;28;20209;-64
2022/04/21 04:27:17;;;;;;;0.90;0.90;;;7.70;99.90;;;;;;5032929;28;20212;-64
2022/04/21 04:29:44;;;;;;;1.00;1.00;;;7.70;99.90;;;;;;5033810;28;20224;-65
2022/04/21 04:32:11;;;;;;;1.08;1.08;;;7.70;99.90;;;;;;5031498;28;20311;-63
2022/04/21 04:34:38;;;;;;;0.95;0.95;;;7.70;99.90;;;;;;5034135;28;20208;-62
2022/04/21 04:37:06;;;;;;;1.15;1.15;;;7.70;99.90;;;;;;5033713;28;20211;-63
2022/04/21 04:39:33;;;;;;;1.10;1.10;;;7.70;99.90;;;;;;5033547;28;20316;-63
2022/04/21 04:42:17;;;;;;;0.90;0.90;;;7.70;99.90;;;;;;5033991;28;20239;-64
2022/04/21 04:44:44;;;;;;;1.27;1.17;;;7.70;99.90;;;;;;5032335;28;20205;-63
2022/04/21 04:47:10;;;;;;;1.02;1.02;;;7.70;99.90;;;;;;5034133;28;20228;-63
2022/04/21 04:49:37;;;;;;;1.10;1.10;;;7.70;99.90;;;;;;5030849;28;20252;-64
2022/04/21 04:52:06;;;;;;;1.00;1.00;;;7.70;99.90;;;;;;5014697;28;20221;-64
2022/04/21 04:54:33;;;;;;;1.00;1.00;;;7.80;99.90;;;;;;5033311;28;20633;-62
2022/04/21 04:57:00;;;;;;;1.13;1.05;;;7.80;99.90;;;;;;5031740;28;20274;-65
2022/04/21 04:59:29;;;;;;;1.10;1.10;;;7.90;99.90;;;;;;5032420;28;20693;-64
2022/04/21 05:01:56;;;;;;;1.02;1.02;;;7.80;99.90;;;;;;5033310;28;20201;-63
2022/04/21 05:04:24;;;;;;;1.00;1.00;;;7.80;99.90;;;;;;5033074;28;20236;-63
2022/04/21 05:06:53;;;;;;;1.38;1.27;;;7.80;99.90;;;;;;5032554;28;20297;-64
2022/04/21 05:09:23;;;;;;;1.23;1.20;;;7.80;99.90;;;;;;5031383;28;20300;-65
2022/04/21 05:11:51;;;;;;;1.08;1.08;;;7.80;99.90;;;;;;5036547;28;20220;-64
2022/04/21 05:14:18;;;;;;;1.40;1.30;;;7.80;99.90;;;;;;5036314;28;20209;-63
2022/04/21 05:16:46;;;;;;;1.65;1.20;;;7.80;99.90;;;;;;5035734;28;20308;-64
2022/04/21 05:19:16;;;;;;;1.02;1.02;;;7.90;99.90;;;;;;5035821;28;20201;-64
2022/04/21 05:21:43;;;;;;;1.20;1.10;;;7.90;99.90;;;;;;5036353;28;20205;-64
2022/04/21 05:24:11;;;;;;;2.05;1.30;;;8.00;99.90;;;;;;5037638;28;20241;-64
2022/04/21 05:26:41;;;;;;;0.95;0.95;;;8.10;99.90;;;;;;5036253;28;20705;-63
2022/04/21 05:31:51;;;;;;;1.20;1.20;;;8.20;99.90;;;;;;5030853;28;20251;-63
2022/04/21 05:34:18;;;;;;;1.05;1.05;;;8.10;99.90;;;;;;5033949;28;20200;-65
2022/04/21 05:36:46;;;;;;;1.20;1.20;;;8.30;99.90;;;;;;5034303;28;20264;-64
2022/04/21 05:39:13;;;;;;;1.20;1.20;;;8.40;99.90;;;;;;5035635;28;20239;-64
2022/04/21 05:41:43;;;;;;;1.13;1.13;;;8.60;99.90;;;;;;5038707;28;20258;-65
2022/04/21 05:44:11;;;;;;;1.20;1.20;;;8.60;99.90;;;;;;5038721;28;20201;-64
2022/04/21 05:46:39;;;;;;;1.05;1.05;;;8.60;99.90;;;;;;5037116;28;20204;-65
2022/04/21 05:49:06;;;;;;;1.00;1.00;;;8.70;99.90;;;;;;5041436;28;20211;-64
2022/04/21 05:51:34;;;;;;;1.00;1.00;;;8.80;99.90;;;;;;5040266;28;20229;-65
2022/04/21 05:54:05;;;;;;;1.13;1.13;;;8.90;99.90;;;;;;5042192;28;20288;-64
2022/04/21 05:56:33;;;;;;;1.20;1.20;;;9.00;99.90;;;;;;5036715;28;20204;-63
2022/04/21 05:59:01;;;;;;;1.27;1.27;;;9.10;99.90;;;;;;5035961;28;20236;-65
2022/04/21 06:01:28;;;;;;;1.10;1.10;;;9.20;99.90;;;;;;5036209;28;20224;-64
2022/04/21 06:03:55;;;;;;;1.10;1.10;;;9.30;99.90;;;;;;5035963;28;20232;-62
2022/04/21 06:06:22;;;;;;;1.08;1.08;;;9.40;99.90;;;;;;5036054;28;20204;-63
2022/04/21 06:08:49;;;;;;;1.17;1.08;;;9.50;99.90;;;;;;5030728;28;20295;-64
2022/04/21 06:11:16;;;;;;;1.30;1.20;;;9.60;99.90;;;;;;5036126;28;20292;-63
2022/04/21 06:13:43;;;;;;;1.20;1.10;;;9.70;99.90;;;;;;5035499;28;20230;-64
2022/04/21 06:16:12;;;;;;;1.38;1.27;;;9.90;99.90;;;;;;5036116;28;20291;-66
2022/04/21 06:18:38;;;;;;;1.10;1.10;;;9.90;99.90;;;;;;5034663;28;20257;-66
2022/04/21 06:21:06;;;;;;;1.38;1.27;;;10.10;99.90;;;;;;5035635;28;20287;-65
2022/04/21 06:23:33;;;;;;;1.02;1.02;;;10.20;99.90;;;;;;5035250;28;20714;-64
2022/04/21 06:26:00;;;;;;;1.20;1.20;;;10.40;99.90;;;;;;5036379;28;20212;-64
2022/04/21 06:28:28;;;;;;;1.20;1.20;;;10.40;99.90;;;;;;5035723;28;20231;-64
2022/04/21 06:30:55;;;;;;;1.48;1.25;;;10.50;99.90;;;;;;5036421;28;20516;-65
2022/04/21 06:33:23;;;;;;;1.45;1.35;;;10.60;99.90;;;;;;5053504;28;20259;-65
2022/04/21 06:35:50;;;;;;;1.55;1.45;;;10.70;99.90;;;;;;5055494;28;20208;-66
2022/04/21 06:38:17;;;;;;;1.48;1.48;;;10.70;99.90;;;;;;5054624;28;20197;-65
2022/04/21 06:40:44;;;;;;;2.00;1.90;;;10.70;99.90;;;;;;5055438;28;20631;-64
2022/04/21 06:48:43;;;;;;;2.10;1.90;;;10.90;99.90;;;;;;5036102;28;20222;-64
2022/04/21 06:51:11;;;;;;;4.30;1.85;;;10.90;99.90;;;;;;5034990;28;20785;-65
2022/04/21 06:53:39;;;;;;;1.90;1.80;;;10.80;99.90;;;;;;5034769;28;20224;-64
2022/04/21 06:56:06;;;;;;;1.60;1.40;;;10.70;99.90;;;;;;5035867;28;20207;-65
2022/04/21 06:58:33;;;;;;;2.05;1.60;;;10.70;99.90;;;;;;5033714;28;20208;-63
2022/04/21 07:01:00;;;;;;;1.60;1.50;;;10.80;99.90;;;;;;5033232;28;20224;-65
2022/04/21 07:03:27;;;;;;;1.60;1.50;;;10.90;99.90;;;;;;5033584;28;20291;-64
2022/04/21 07:05:55;;;;;;;2.47;1.48;;;11.00;99.90;;;;;;5034228;28;20228;-64
2022/04/21 07:08:22;;;;;;;1.80;1.70;;;11.00;99.90;;;;;;5034546;28;20208;-63
2022/04/21 07:10:49;;;;;;;1.50;1.40;;;11.10;99.90;;;;;;5034375;28;20233;-65
2022/04/21 07:13:16;;;;;;;1.67;1.58;;;11.10;99.90;;;;;;5034587;28;20311;-64
2022/04/21 07:15:43;;;;;;;1.60;1.50;;;11.20;99.90;;;;;;5034144;28;20240;-67
2022/04/21 07:18:11;;;;;;;1.60;1.50;;;11.20;99.90;;;;;;5033554;28;20230;-64
2022/04/21 07:20:38;;;;;;;1.25;1.25;;;11.30;99.90;;;;;;5033914;28;20227;-65
2022/04/21 07:23:07;;;;;;;2.97;1.70;;;11.40;99.90;;;;;;5034715;28;20303;-65
2022/04/21 07:25:34;;;;;;;1.73;1.63;;;11.40;99.90;;;;;;5034410;28;20268;-65
2022/04/21 07:28:01;;;;;;;1.65;1.55;;;11.40;99.90;;;;;;5033974;28;20212;-64
2022/04/21 07:30:28;;;;;;;1.48;1.42;;;11.70;99.90;;;;;;5035173;28;20229;-65
2022/04/21 07:32:55;;;;;;;1.70;1.60;;;11.70;99.90;;;;;;5035032;28;20224;-64
2022/04/21 07:35:22;;;;;;;1.92;1.83;;;11.80;99.90;;;;;;5035167;28;20299;-64
2022/04/21 07:37:49;;;;;;;1.83;1.73;;;11.90;99.90;;;;;;5033871;28;20209;-65
2022/04/21 07:40:20;;;;;;;1.90;1.80;;;11.90;99.90;;;;;;5034626;28;20319;-65
2022/04/21 07:42:47;;;;;;;1.80;1.70;;;11.90;99.90;;;;;;5035671;28;20695;-65
2022/04/21 07:45:14;;;;;;;1.70;1.60;;;12.00;99.90;;;;;;5033198;28;20208;-66
2022/04/21 07:47:41;;;;;;;3.83;1.58;;;12.00;99.90;;;;;;5032598;28;20204;-65
2022/04/21 07:50:09;;;;;;;1.50;1.40;;;12.00;99.90;;;;;;5032825;28;20260;-65
2022/04/21 07:55:24;;;;;;;1.60;1.50;;;12.30;99.90;;;;;;5033226;28;20192;-66
2022/04/21 07:57:55;;;;;;;1.80;1.70;;;12.40;99.90;;;;;;5033025;28;20273;-64
2022/04/21 08:00:21;;;;;;;1.55;1.45;;;12.60;99.90;;;;;;5033731;28;20228;-65
2022/04/21 08:02:49;;;;;;;1.65;1.35;;;12.80;99.90;;;;;;5033668;28;20288;-65
2022/04/21 08:05:17;;;;;;;1.70;1.60;;;12.80;99.90;;;;;;5033224;28;20295;-65
2022/04/21 08:07:45;;;;;;;1.70;1.60;;;13.00;99.90;;;;;;5031929;28;20291;-64
2022/04/21 08:10:13;;;;;;;1.50;1.50;;;13.00;99.90;;;;;;5033126;28;20229;-65
2022/04/21 08:12:43;;;;;;;1.42;1.42;;;13.00;99.90;;;;;;5033121;28;20315;-65
2022/04/21 08:15:12;;;;;;;1.40;1.40;;;13.10;99.90;;;;;;5034102;28;20268;-64
2022/04/21 08:17:40;;;;;;;1.70;1.60;;;13.30;99.90;;;;;;5032373;28;20216;-65
2022/04/21 08:20:09;;;;;;;1.50;1.50;;;13.40;99.90;;;;;;5033271;28;20600;-64
2022/04/21 08:22:36;;;;;;;1.70;1.60;;;13.40;99.90;;;;;;5032933;28;20243;-65
2022/04/21 08:33:19;;;;;;;1.45;1.40;;;13.70;99.90;;;;;;5032235;28;20238;-65
2022/04/21 08:35:48;;;;;;;1.50;1.50;;;13.70;99.90;;;;;;5032907;28;20236;-65
2022/04/21 08:38:15;;;;;;;1.63;1.60;;;13.70;99.90;;;;;;5032132;28;20578;-64
2022/04/21 08:40:50;;;;;;;1.67;1.58;;;13.90;99.90;;;;;;5033683;28;20278;-64
2022/04/21 08:43:18;;;;;;;1.75;1.65;;;13.90;99.90;;;;;;5039961;28;20239;-64
2022/04/21 08:45:47;;;;;;;1.42;1.42;;;13.90;99.90;;;;;;5036816;28;20273;-65
2022/04/21 08:48:15;;;;;;;1.45;1.42;;;14.10;99.90;;;;;;5036039;28;20247;-64
2022/04/21 08:50:43;;;;;;;1.85;1.63;;;14.40;99.90;;;;;;5057189;22;20240;-67
2022/04/21 08:53:12;;;;;;;1.75;1.65;;;14.40;99.90;;;;;;5052360;28;20250;-68
2022/04/21 08:55:40;;;;;;;1.40;1.40;;;14.50;99.90;;;;;;5057390;28;20204;-68
2022/04/21 08:58:07;;;;;;;1.60;1.55;;;14.70;99.90;;;;;;5057199;28;20235;-65
2022/04/21 09:00:36;;;;;;;1.63;1.52;;;14.70;99.90;;;;;;5052564;28;20217;-67
2022/04/21 09:03:06;;;;;;;1.45;1.45;;;14.70;99.90;;;;;;5022362;28;20201;-67
2022/04/21 09:05:33;;;;;;;1.55;1.45;;;14.60;99.90;;;;;;5023131;28;20205;-68
2022/04/21 09:08:01;;;;;;;1.33;1.33;;;14.50;99.90;;;;;;5023986;28;20418;-69
2022/04/21 09:10:28;;;;;;;1.92;1.83;;;14.80;99.90;;;;;;5027545;28;20236;-67
2022/04/21 09:12:57;;;;;;;1.52;1.50;;;14.90;99.90;;;;;;5019280;28;20232;-67
2022/04/21 09:15:27;;;;;;;1.60;1.50;;;14.90;99.90;;;;;;5014971;28;20589;-68
2022/04/21 09:17:57;;;;;;;1.50;1.45;;;15.10;99.90;;;;;;5014645;28;20288;-68
2022/04/21 09:20:26;;;;;;;1.70;1.60;;;15.20;99.90;;;;;;5015678;28;20233;-66
2022/04/21 09:22:55;;;;;;;1.63;1.52;;;15.30;99.90;;;;;;5016371;28;20201;-69
2022/04/21 09:25:23;;;;;;;1.60;1.50;;;15.40;99.90;;;;;;5016928;28;20209;-66
2022/04/21 09:27:50;;;;;;;1.55;1.55;;;15.60;99.90;;;;;;5015615;28;20203;-68
2022/04/21 09:30:18;;;;;;;2.15;1.75;;;15.80;99.90;;;;;;5015606;28;20225;-68
2022/04/21 09:32:52;;;;;;;1.42;1.42;;;15.90;99.90;;;;;;5018012;28;20202;-66
2022/04/21 09:35:22;;;;;;;1.70;1.60;;;16.00;99.90;;;;;;5016857;28;20204;-67
2022/04/21 09:37:51;;;;;;;1.65;1.55;;;16.10;99.90;;;;;;5017749;28;20202;-67
2022/04/21 09:40:20;;;;;;;3.88;1.75;;;15.90;99.90;;;;;;5015793;28;20235;-67
2022/04/21 09:42:55;;;;;;;1.40;1.40;;;15.60;99.90;;;;;;5017306;28;20205;-67
2022/04/21 09:48:22;;;;;;;1.80;1.70;;;15.60;99.90;;;;;;5020739;28;20212;-68
2022/04/21 09:50:53;;;;;;;2.35;1.73;;;15.60;99.90;;;;;;5035335;28;20242;-68
2022/04/21 09:53:21;;;;;;;1.75;1.65;;;15.70;99.90;;;;;;5034826;28;20233;-67
2022/04/21 09:55:49;;;;;;;1.40;1.40;;;15.80;99.90;;;;;;5033002;28;20241;-64
2022/04/21 09:58:17;;;;;;;1.50;1.40;;;15.90;99.90;;;;;;5031637;28;20205;-67
2022/04/21 10:00:44;;;;;;;1.58;1.48;;;16.20;99.90;;;;;;5021237;28;20241;-66
2022/04/21 10:03:12;;;;;;;1.50;1.40;;;16.50;99.90;;;;;;5016346;28;20244;-67
2022/04/21 10:05:40;;;;;;;1.48;1.40;;;16.80;99.90;;;;;;5015465;28;20237;-67
2022/04/21 10:08:10;;;;;;;1.52;1.42;;;16.80;99.90;;;;;;5013981;28;20217;-67
2022/04/21 10:10:39;;;;;;;1.60;1.50;;;16.80;99.90;;;;;;5014073;28;20237;-66
2022/04/21 10:13:07;;;;;;;1.80;1.70;;;17.00;99.90;;;;;;5014412;28;20256;-68
2022/04/21 10:15:35;;;;;;;2.00;1.90;;;16.80;99.90;;;;;;5015140;28;20244;-66
2022/04/21 10:18:02;;;;;;;2.42;1.60;;;16.80;99.90;;;;;;5014199;28;20252;-67
2022/04/21 10:20:31;;;;;;;1.70;1.60;;;17.00;99.90;;;;;;5014206;28;20259;-69
2022/04/21 10:23:00;;;;;;;1.60;1.50;;;17.00;99.90;;;;;;5014393;28;20216;-67
2022/04/21 10:25:39;;;;;;;1.80;1.70;;;17.20;99.90;;;;;;5014317;28;20754;-67
2022/04/21 10:28:35;;;;;;;1.48;1.48;;;17.20;99.90;;;;;;5015059;28;20237;-68
2022/04/21 10:31:26;;;;;;;1.50;1.50;;;17.30;99.90;;;;;;5014282;28;20307;-67
2022/04/21 10:33:54;;;;;;;1.67;1.58;;;17.40;99.90;;;;;;5014289;28;20226;-67
2022/04/21 10:36:41;;;;;;;1.67;1.58;;;17.50;99.90;;;;;;5014321;28;20296;-67
2022/04/21 10:39:12;;;;;;;1.60;1.50;;;17.70;99.90;;;;;;5014233;28;20685;-66
2022/04/21 10:41:41;;;;;;;1.80;1.70;;;17.70;99.90;;;;;;5001468;28;20303;-69
2022/04/21 10:44:14;;;;;;;1.70;1.60;;;17.60;99.90;;;;;;5000900;28;20212;-67
2022/04/21 10:46:41;;;;;;;1.50;1.40;;;17.60;99.90;;;;;;5001542;28;20365;-65
2022/04/21 10:49:09;;;;;;;4.10;1.98;;;17.70;99.90;;;;;;5012895;28;20220;-66
2022/04/21 10:58:51;;;;;;;1.58;1.50;;;18.20;99.90;;;;;;5012937;28;20686;-67
2022/04/21 11:01:22;;;;;;;1.52;1.50;;;18.40;99.80;;;;;;5013727;28;20695;-67
2022/04/21 11:04:21;;;;;;;1.65;1.55;;;18.60;99.90;;;;;;5013169;28;20225;-67
2022/04/21 11:06:51;;;;;;;1.40;1.40;;;18.60;99.90;;;;;;5012609;28;20588;-66
2022/04/21 11:09:37;;;;;;;1.40;1.40;;;18.80;99.40;;;;;;5013962;28;20213;-66
2022/04/21 11:12:05;;;;;;;1.30;1.30;;;18.70;98.90;;;;;;5013413;28;20225;-67
2022/04/21 11:14:33;;;;;;;1.38;1.30;;;18.60;99.00;;;;;;5013465;28;20232;-68
2022/04/21 11:17:02;;;;;;;1.40;1.40;;;18.60;98.70;;;;;;5012928;28;20288;-67
2022/04/21 11:19:40;;;;;;;1.30;1.30;;;18.50;98.00;;;;;;5012402;28;20217;-67
2022/04/21 11:22:08;;;;;;;1.30;1.30;;;18.50;98.70;;;;;;5012623;28;20217;-67
2022/04/21 11:25:01;;;;;;;1.50;1.40;;;18.50;98.20;;;;;;5013209;28;20622;-66
2022/04/21 11:27:28;;;;;;;1.70;1.60;;;18.30;98.10;;;;;;5013704;28;20212;-68
2022/04/21 11:29:59;;;;;;;1.85;1.58;;;18.20;98.40;;;;;;5013246;28;20269;-67
2022/04/21 11:32:28;;;;;;;1.23;1.23;;;18.50;98.40;;;;;;5013639;28;20644;-67
2022/04/21 11:35:03;;;;;;;2.45;1.35;;;18.70;98.60;;;;;;5015116;28;20320;-68
2022/04/21 11:37:53;;;;;;;1.60;1.50;;;18.90;98.50;;;;;;5017053;28;20291;-68
2022/04/21 11:40:29;;;;;;;1.55;1.40;;;18.80;97.80;;;;;;5022924;28;20213;-66
2022/04/21 11:42:58;;;;;;;1.40;1.33;;;18.70;97.80;;;;;;5018694;28;20629;-68
2022/04/21 11:45:26;;;;;;;1.63;1.52;;;18.80;98.50;;;;;;5014144;28;20205;-68
2022/04/21 11:47:55;;;;;;;6.70;1.58;;;18.90;98.70;;;;;;5014369;28;20236;-67
2022/04/21 11:50:24;;;;;;;1.27;1.27;;;18.90;98.70;;;;;;5013238;28;20319;-67
2022/04/21 11:52:54;;;;;;;1.70;1.58;;;19.00;98.60;;;;;;5012522;28;20234;-68
2022/04/21 11:55:26;;;;;;;1.55;1.45;;;19.10;98.50;;;;;;5013150;28;20263;-69
2022/04/21 11:57:53;;;;;;;1.30;1.27;;;19.20;98.50;;;;;;5012122;28;20237;-68
2022/04/21 12:08:35;;;;;;;1.38;1.30;;;19.40;98.50;;;;;;5023683;28;20263;-67
2022/04/21 12:11:02;;;;;;;1.40;1.30;;;19.40;98.70;;;;;;5024574;28;20707;-68
2022/04/21 12:13:29;;;;;;;1.10;1.10;;;19.20;98.00;;;;;;5019813;28;20667;-68
2022/04/21 12:15:56;;;;;;;1.33;1.30;;;19.30;98.10;;;;;;5011998;28;20313;-66
2022/04/21 12:18:24;;;;;;;1.65;1.50;;;19.50;98.40;;;;;;5015332;28;20211;-68
2022/04/21 12:20:55;;;;;;;1.40;1.30;;;19.50;98.80;;;;;;5016575;28;20256;-68
2022/04/21 12:23:27;;;;;;;1.80;1.70;;;19.40;99.10;;;;;;5016550;28;20683;-69
2022/04/21 12:25:57;;;;;;;1.33;1.33;;;19.10;99.40;;;;;;5016597;28;20296;-68
2022/04/21 12:28:24;;;;;;;1.42;1.33;;;19.20;99.10;;;;;;5016100;28;20201;-68
2022/04/21 12:30:51;;;;;;;1.13;1.13;;;19.30;98.60;;;;;;5015959;28;20287;-66
2022/04/21 12:33:18;;;;;;;1.13;1.13;;;19.40;98.20;;;;;;5016315;28;20293;-68
2022/04/21 12:35:49;;;;;;;1.48;1.38;;;19.40;98.00;;;;;;5016221;28;20221;-67
2022/04/21 12:41:01;;;;;;;1.30;1.20;;;19.70;98.50;;;;;;5017359;28;20223;-70
2022/04/21 12:43:30;;;;;;;1.33;1.30;;;19.80;98.90;;;;;;5031325;28;20212;-67
2022/04/21 12:45:58;;;;;;;1.33;1.30;;;19.90;98.90;;;;;;5034785;28;20209;-65
2022/04/21 12:48:25;;;;;;;1.50;1.40;;;20.00;98.60;;;;;;5029689;28;20205;-69
2022/04/21 12:50:54;;;;;;;1.50;1.40;;;20.10;98.60;;;;;;5031150;28;20233;-69
2022/04/21 12:53:29;;;;;;;1.40;1.30;;;19.90;98.40;;;;;;5032185;28;20209;-67
2022/04/21 12:55:56;;;;;;;1.63;1.52;;;19.80;99.00;;;;;;5024704;28;20739;-67
2022/04/21 12:58:31;;;;;;;1.40;1.30;;;19.80;99.00;;;;;;5014801;28;20209;-68
2022/04/21 13:01:01;;;;;;;1.30;1.30;;;19.90;98.90;;;;;;5015440;28;20224;-68
2022/04/21 13:03:28;;;;;;;3.40;1.63;;;19.90;99.20;;;;;;5015390;28;20231;-68
2022/04/21 13:05:58;;;;;;;2.28;1.38;;;19.80;99.00;;;;;;5015290;28;20232;-69
2022/04/21 13:08:26;;;;;;;1.10;1.10;;;19.90;99.10;;;;;;5015249;28;20217;-68
2022/04/21 13:10:55;;;;;;;1.20;1.20;;;20.10;99.50;;;;;;5015285;28;20225;-69
2022/04/21 13:13:22;;;;;;;1.58;1.20;;;20.20;99.00;;;;;;5015201;28;20598;-67
2022/04/21 13:15:49;;;;;;;2.55;1.40;;;20.30;98.30;;;;;;5015212;28;20229;-68
2022/04/21 13:18:17;;;;;;;1.40;1.30;;;20.00;98.10;;;;;;5014563;28;20288;-67
2022/04/21 13:23:30;;;;;;;1.30;1.20;;;20.00;99.10;;;;;;5015407;28;20251;-68
2022/04/21 13:25:57;;;;;;;1.10;1.10;;;20.30;98.90;;;;;;5015329;28;20304;-69
2022/04/21 13:28:24;;;;;;;1.20;1.20;;;20.40;98.70;;;;;;5013968;28;20296;-69
2022/04/21 13:33:21;;;;;;;1.13;1.13;;;20.50;99.20;;;;;;5015088;28;20260;-68
2022/04/21 13:33:38;;;;;;;1.83;1.45;;;20.70;98.80;;;;;;5015033;28;20205;-67
2022/04/21 13:36:06;;;;;;;1.00;1.00;;;20.90;97.20;;;;;;5015056;28;20311;-66
2022/04/21 13:38:35;;;;;;;1.10;1.00;;;20.90;97.00;;;;;;5014049;28;20209;-69
2022/04/21 13:41:02;;;;;;;1.35;1.25;;;21.00;98.00;;;;;;5015038;28;20236;-68
2022/04/21 13:43:28;;;;;;;1.00;1.00;;;21.00;98.30;;;;;;5015661;28;20312;-68
2022/04/21 13:45:58;;;;;;;1.10;1.10;;;21.20;98.50;;;;;;5016628;28;20197;-66
2022/04/21 13:48:25;;;;;;;1.13;1.05;;;21.30;98.30;;;;;;5014649;28;20210;-69
2022/04/21 13:50:52;;;;;;;0.93;0.93;;;21.40;97.70;;;;;;5014530;28;20245;-68
2022/04/21 13:53:19;;;;;;;1.33;1.23;;;21.30;97.90;;;;;;5015019;28;20205;-68
2022/04/21 13:55:47;;;;;;;1.75;1.10;;;21.50;98.10;;;;;;5015561;28;20324;-68
2022/04/21 13:58:14;;;;;;;0.93;0.93;;;21.00;97.90;;;;;;5014333;28;20236;-68
2022/04/21 14:00:44;;;;;;;1.35;1.10;;;21.10;98.30;;;;;;5014426;28;20774;-66
2022/04/21 14:03:12;;;;;;;1.10;1.10;;;21.20;98.50;;;;;;5014558;28;20263;-67
2022/04/21 14:05:39;;;;;;;1.00;1.00;;;21.30;98.40;;;;;;5014346;28;20206;-68
2022/04/21 14:08:08;;;;;;;1.10;1.10;;;21.10;98.00;;;;;;5013817;28;20255;-66
2022/04/21 14:10:35;;;;;;;1.00;0.90;;;21.20;98.10;;;;;;5014302;28;20225;-69
2022/04/21 14:13:04;;;;;;;0.98;0.98;;;21.20;97.90;;;;;;5014235;28;20205;-67
2022/04/21 14:15:31;;;;;;;0.80;0.80;;;21.20;97.60;;;;;;5013883;28;20232;-69
2022/04/21 14:17:58;;;;;;;0.80;0.80;;;21.30;97.50;;;;;;5013545;28;20754;-68
2022/04/21 14:20:25;;;;;;;1.25;0.90;;;21.40;98.00;;;;;;5014161;28;20221;-69